createdAt,value
2023-04-15T00:00:42.185Z,9.45
2023-04-15T00:01:45.073Z,9.40
2023-04-15T00:02:48.464Z,9.37
2023-04-15T00:03:52.722Z,9.33
2023-04-15T00:04:55.602Z,9.32
2023-04-15T00:05:58.018Z,9.28
2023-04-15T00:07:00.829Z,9.25
2023-04-15T00:08:02.857Z,9.21
2023-04-15T00:09:05.951Z,9.17
2023-04-15T00:10:09.553Z,9.15
2023-04-15T00:11:12.538Z,9.11
2023-04-15T00:12:14.533Z,9.09
2023-04-15T00:13:17.442Z,9.06
2023-04-15T00:14:19.352Z,9.03
2023-04-15T00:15:22.387Z,9.01
2023-04-15T00:16:24.213Z,9.00
2023-04-15T00:17:27.004Z,9.00
2023-04-15T00:18:29.596Z,9.01
2023-04-15T00:19:33.300Z,9.00
2023-04-15T00:20:35.409Z,9.00
2023-04-15T00:21:38.245Z,8.98
2023-04-15T00:22:40.054Z,8.97
2023-04-15T00:23:42.882Z,8.95
2023-04-15T00:24:45.498Z,8.92
2023-04-15T00:25:49.711Z,8.91
2023-04-15T00:26:51.582Z,8.88
2023-04-15T00:27:54.386Z,8.87
2023-04-15T00:28:56.219Z,8.84
2023-04-15T00:29:59.048Z,8.82
2023-04-15T00:31:00.942Z,8.79
2023-04-15T00:32:03.805Z,8.76
2023-04-15T00:33:05.652Z,8.74
2023-04-15T00:34:08.578Z,8.70
2023-04-15T00:35:11.434Z,8.65
2023-04-15T00:36:13.615Z,8.61
2023-04-15T00:37:16.549Z,8.57
2023-04-15T00:38:18.580Z,8.54
2023-04-15T00:39:21.674Z,8.52
2023-04-15T00:40:24.883Z,8.49
2023-04-15T00:41:29.025Z,8.48
2023-04-15T00:42:31.286Z,8.45
2023-04-15T00:43:34.137Z,8.44
2023-04-15T00:44:35.960Z,8.42
2023-04-15T00:45:39.033Z,8.41
2023-04-15T00:46:41.678Z,8.40
2023-04-15T00:47:45.138Z,8.39
2023-04-15T00:48:47.288Z,8.40
2023-04-15T00:49:50.187Z,8.40
2023-04-15T00:50:53.716Z,8.40
2023-04-15T00:51:57.074Z,8.39
2023-04-15T00:52:59.263Z,8.39
2023-04-15T00:54:02.049Z,8.38
2023-04-15T00:55:04.783Z,8.40
2023-04-15T00:56:08.988Z,8.38
2023-04-15T00:57:12.278Z,8.38
2023-04-15T00:58:15.543Z,8.39
2023-04-15T00:59:17.887Z,8.38
2023-04-15T01:00:21.717Z,8.36
2023-04-15T01:01:25.492Z,8.34
2023-04-15T01:02:28.951Z,8.34
2023-04-15T01:03:31.297Z,8.34
2023-04-15T01:04:34.298Z,8.32
2023-04-15T01:05:37.242Z,8.32
2023-04-15T01:06:40.060Z,8.33
2023-04-15T01:07:41.923Z,8.32
2023-04-15T01:08:45.382Z,8.34
2023-04-15T01:09:47.983Z,8.32
2023-04-15T01:10:50.760Z,8.29
2023-04-15T01:11:53.800Z,8.28
2023-04-15T01:12:57.970Z,8.30
2023-04-15T01:14:00.972Z,8.28
2023-04-15T01:15:05.799Z,8.29
2023-04-15T01:16:08.963Z,8.28
2023-04-15T01:17:12.550Z,8.29
2023-04-15T01:18:15.722Z,8.30
2023-04-15T01:19:18.764Z,8.31
2023-04-15T01:20:22.126Z,8.33
2023-04-15T01:21:25.096Z,8.34
2023-04-15T01:22:28.047Z,8.36
2023-04-15T01:23:30.926Z,8.36
2023-04-15T01:24:33.259Z,8.36
2023-04-15T01:25:38.270Z,8.37
2023-04-15T01:26:42.336Z,8.39
2023-04-15T01:27:45.545Z,8.37
2023-04-15T01:28:48.941Z,8.33
2023-04-15T01:29:50.727Z,8.28
2023-04-15T01:31:07.479Z,8.23
2023-04-15T01:32:12.153Z,8.19
2023-04-15T01:33:15.237Z,8.18
2023-04-15T01:34:17.500Z,8.17
2023-04-15T01:35:21.197Z,8.14
2023-04-15T01:36:22.998Z,8.12
2023-04-15T01:37:29.979Z,8.07
2023-04-15T01:38:32.444Z,8.04
2023-04-15T01:39:35.408Z,8.00
2023-04-15T01:40:38.703Z,7.95
2023-04-15T01:41:42.337Z,7.92
2023-04-15T01:42:44.193Z,7.88
2023-04-15T01:43:47.551Z,7.87
2023-04-15T01:44:49.353Z,7.85
2023-04-15T01:45:52.182Z,7.85
2023-04-15T01:46:54.468Z,7.85
2023-04-15T01:47:57.348Z,7.84
2023-04-15T01:48:59.527Z,7.84
2023-04-15T01:50:02.740Z,7.83
2023-04-15T01:51:04.695Z,7.83
2023-04-15T01:52:08.006Z,7.82
2023-04-15T01:53:09.932Z,7.81
2023-04-15T01:54:12.772Z,7.77
2023-04-15T01:55:14.710Z,7.73
2023-04-15T01:56:19.504Z,7.70
2023-04-15T01:57:21.391Z,7.68
2023-04-15T01:58:24.255Z,7.63
2023-04-15T01:59:27.772Z,7.56
2023-04-15T02:00:32.527Z,7.48
2023-04-15T02:01:34.759Z,7.41
2023-04-15T02:02:38.083Z,7.36
2023-04-15T02:03:40.250Z,7.30
2023-04-15T02:04:43.566Z,7.26
2023-04-15T02:05:45.953Z,7.25
2023-04-15T02:06:48.805Z,7.24
2023-04-15T02:07:50.666Z,7.22
2023-04-15T02:08:53.786Z,7.21
2023-04-15T02:09:55.627Z,7.20
2023-04-15T02:10:58.535Z,7.19
2023-04-15T02:12:01.883Z,7.19
2023-04-15T02:13:05.010Z,7.18
2023-04-15T02:14:06.873Z,7.17
2023-04-15T02:15:11.621Z,7.15
2023-04-15T02:16:17.647Z,7.13
2023-04-15T02:17:20.742Z,7.13
2023-04-15T02:18:22.712Z,7.13
2023-04-15T02:19:26.026Z,7.11
2023-04-15T02:20:28.008Z,7.12
2023-04-15T02:21:35.360Z,7.08
2023-04-15T02:22:37.294Z,7.08
2023-04-15T02:23:40.060Z,7.08
2023-04-15T02:24:42.343Z,7.06
2023-04-15T02:25:53.872Z,7.05
2023-04-15T02:26:56.465Z,7.02
2023-04-15T02:28:00.642Z,7.01
2023-04-15T02:29:02.994Z,6.99
2023-04-15T02:30:07.222Z,6.97
2023-04-15T02:31:11.049Z,6.97
2023-04-15T02:32:13.375Z,6.98
2023-04-15T02:33:16.495Z,6.96
2023-04-15T02:34:18.596Z,6.93
2023-04-15T02:35:21.475Z,6.91
2023-04-15T02:36:24.390Z,6.89
2023-04-15T02:37:28.651Z,6.88
2023-04-15T02:38:32.010Z,6.87
2023-04-15T02:39:34.399Z,6.85
2023-04-15T02:40:37.309Z,6.83
2023-04-15T02:41:39.169Z,6.80
2023-04-15T02:42:42.665Z,6.78
2023-04-15T02:43:48.628Z,6.74
2023-04-15T02:44:51.997Z,6.71
2023-04-15T02:45:53.906Z,6.68
2023-04-15T02:46:58.696Z,6.65
2023-04-15T02:48:03.920Z,6.62
2023-04-15T02:49:06.678Z,6.58
2023-04-15T02:50:12.492Z,6.53
2023-04-15T02:51:18.337Z,6.47
2023-04-15T02:52:20.669Z,6.43
2023-04-15T02:53:23.882Z,6.38
2023-04-15T02:54:28.704Z,6.33
2023-04-15T02:55:31.493Z,6.27
2023-04-15T02:56:33.433Z,6.22
2023-04-15T02:57:37.316Z,6.14
2023-04-15T02:58:41.940Z,6.08
2023-04-15T02:59:46.245Z,6.03
2023-04-15T03:00:50.912Z,5.96
2023-04-15T03:01:53.801Z,5.90
2023-04-15T03:02:59.235Z,5.82
2023-04-15T03:04:02.345Z,5.74
2023-04-15T03:05:05.896Z,5.66
2023-04-15T03:06:09.595Z,5.60
2023-04-15T03:07:12.066Z,5.59
2023-04-15T03:08:15.826Z,5.57
2023-04-15T03:09:17.980Z,5.54
2023-04-15T03:10:21.543Z,5.53
2023-04-15T03:11:23.330Z,5.54
2023-04-15T03:12:26.822Z,5.57
2023-04-15T03:13:31.389Z,5.59
2023-04-15T03:14:36.673Z,5.62
2023-04-15T03:15:40.997Z,5.63
2023-04-15T03:16:42.814Z,5.64
2023-04-15T03:17:45.623Z,5.65
2023-04-15T03:18:47.830Z,5.65
2023-04-15T03:19:51.410Z,5.66
2023-04-15T03:20:53.246Z,5.68
2023-04-15T03:21:56.309Z,5.70
2023-04-15T03:22:58.327Z,5.70
2023-04-15T03:24:01.752Z,5.69
2023-04-15T03:25:04.903Z,5.71
2023-04-15T03:26:09.244Z,5.71
2023-04-15T03:27:11.773Z,5.66
2023-04-15T03:28:14.628Z,5.63
2023-04-15T03:29:16.566Z,5.59
2023-04-15T03:30:19.730Z,5.55
2023-04-15T03:31:23.308Z,5.49
2023-04-15T03:32:27.144Z,5.45
2023-04-15T03:33:29.988Z,5.43
2023-04-15T03:34:32.468Z,5.38
2023-04-15T03:35:35.470Z,5.36
2023-04-15T03:36:38.311Z,5.32
2023-04-15T03:37:40.157Z,5.26
2023-04-15T03:38:42.941Z,5.23
2023-04-15T03:39:44.778Z,5.20
2023-04-15T03:40:48.233Z,5.16
2023-04-15T03:41:50.009Z,5.14
2023-04-15T03:42:52.801Z,5.12
2023-04-15T03:43:54.737Z,5.11
2023-04-15T03:44:57.577Z,5.09
2023-04-15T03:46:01.756Z,5.08
2023-04-15T03:47:06.121Z,5.07
2023-04-15T03:48:17.060Z,5.06
2023-04-15T03:49:22.973Z,5.04
2023-04-15T03:50:26.152Z,5.03
2023-04-15T03:51:28.331Z,5.02
2023-04-15T03:52:31.376Z,5.00
2023-04-15T03:53:33.262Z,5.00
2023-04-15T03:54:36.190Z,5.01
2023-04-15T03:55:38.066Z,4.97
2023-04-15T03:56:40.841Z,4.91
2023-04-15T03:57:42.612Z,4.88
2023-04-15T03:58:45.374Z,4.87
2023-04-15T03:59:47.527Z,4.86
2023-04-15T04:00:50.488Z,4.88
2023-04-15T04:01:52.355Z,4.85
2023-04-15T04:02:56.995Z,4.82
2023-04-15T04:03:58.949Z,4.82
2023-04-15T04:05:01.778Z,4.81
2023-04-15T04:06:04.341Z,4.78
2023-04-15T04:07:07.148Z,4.76
2023-04-15T04:08:08.920Z,4.73
2023-04-15T04:09:12.193Z,4.71
2023-04-15T04:10:13.988Z,4.72
2023-04-15T04:11:17.218Z,4.70
2023-04-15T04:12:19.059Z,4.68
2023-04-15T04:13:21.823Z,4.67
2023-04-15T04:14:29.276Z,4.64
2023-04-15T04:15:32.230Z,4.67
2023-04-15T04:16:35.205Z,4.69
2023-04-15T04:17:37.265Z,4.70
2023-04-15T04:18:41.478Z,4.69
2023-04-15T04:19:43.310Z,4.67
2023-04-15T04:20:46.117Z,4.68
2023-04-15T04:21:48.066Z,4.70
2023-04-15T04:22:51.073Z,4.70
2023-04-15T04:23:52.839Z,4.69
2023-04-15T04:24:55.709Z,4.69
2023-04-15T04:25:57.678Z,4.70
2023-04-15T04:27:00.906Z,4.70
2023-04-15T04:28:03.175Z,4.73
2023-04-15T04:29:06.428Z,4.77
2023-04-15T04:30:09.087Z,4.81
2023-04-15T04:31:12.147Z,4.87
2023-04-15T04:32:14.427Z,4.92
2023-04-15T04:33:17.340Z,4.98
2023-04-15T04:34:21.081Z,5.05
2023-04-15T04:35:23.857Z,5.10
2023-04-15T04:36:26.572Z,5.15
2023-04-15T04:37:30.080Z,5.18
2023-04-15T04:38:31.855Z,5.23
2023-04-15T04:39:34.596Z,5.29
2023-04-15T04:40:36.777Z,5.34
2023-04-15T04:41:39.531Z,5.36
2023-04-15T04:42:41.527Z,5.39
2023-04-15T04:43:44.771Z,5.42
2023-04-15T04:44:47.162Z,5.46
2023-04-15T04:45:49.935Z,5.51
2023-04-15T04:46:51.912Z,5.56
2023-04-15T04:47:54.790Z,5.62
2023-04-15T04:48:56.596Z,5.67
2023-04-15T04:50:00.782Z,5.73
2023-04-15T04:51:03.610Z,5.80
2023-04-15T04:52:05.745Z,5.85
2023-04-15T04:53:09.059Z,5.88
2023-04-15T04:54:10.855Z,5.92
2023-04-15T04:55:13.620Z,5.97
2023-04-15T04:56:15.580Z,6.01
2023-04-15T04:57:18.339Z,6.03
2023-04-15T04:58:20.194Z,6.09
2023-04-15T04:59:23.130Z,6.12
2023-04-15T05:00:25.312Z,6.17
2023-04-15T05:01:28.505Z,6.22
2023-04-15T05:02:30.912Z,6.26
2023-04-15T05:03:34.038Z,6.29
2023-04-15T05:04:36.945Z,6.35
2023-04-15T05:05:41.569Z,6.40
2023-04-15T05:06:43.375Z,6.46
2023-04-15T05:07:46.181Z,6.52
2023-04-15T05:08:48.357Z,6.56
2023-04-15T05:09:51.126Z,6.60
2023-04-15T05:10:53.258Z,6.64
2023-04-15T05:11:56.668Z,6.66
2023-04-15T05:12:59.451Z,6.69
2023-04-15T05:14:02.605Z,6.73
2023-04-15T05:15:07.044Z,6.76
2023-04-15T05:16:09.450Z,6.80
2023-04-15T05:17:12.492Z,6.84
2023-04-15T05:18:14.607Z,6.89
2023-04-15T05:19:17.377Z,6.93
2023-04-15T05:20:19.147Z,6.94
2023-04-15T05:21:23.483Z,7.00
2023-04-15T05:22:25.337Z,7.02
2023-04-15T05:23:28.562Z,7.07
2023-04-15T05:24:30.566Z,7.11
2023-04-15T05:25:33.314Z,7.15
2023-04-15T05:26:35.214Z,7.20
2023-04-15T05:27:38.224Z,7.26
2023-04-15T05:28:41.299Z,7.32
2023-04-15T05:29:44.119Z,7.41
2023-04-15T05:30:46.400Z,7.48
2023-04-15T05:31:49.325Z,7.56
2023-04-15T05:32:51.240Z,7.65
2023-04-15T05:33:54.134Z,7.73
2023-04-15T05:34:56.936Z,7.80
2023-04-15T05:35:58.776Z,7.86
2023-04-15T05:37:02.931Z,7.92
2023-04-15T05:38:04.735Z,7.99
2023-04-15T05:39:07.517Z,8.05
2023-04-15T05:40:11.422Z,8.11
2023-04-15T05:41:17.074Z,8.18
2023-04-15T05:42:20.316Z,8.26
2023-04-15T05:43:23.173Z,8.32
2023-04-15T05:44:24.964Z,8.41
2023-04-15T05:45:27.771Z,8.49
2023-04-15T05:46:29.716Z,8.56
2023-04-15T05:47:32.722Z,8.68
2023-04-15T05:48:34.556Z,8.78
2023-04-15T05:49:37.837Z,8.89
2023-04-15T05:50:41.148Z,9.05
2023-04-15T05:51:43.922Z,9.25
2023-04-15T05:52:47.198Z,9.43
2023-04-15T05:53:49.957Z,9.58
2023-04-15T05:54:51.817Z,9.73
2023-04-15T05:55:55.469Z,9.86
2023-04-15T05:56:57.688Z,9.98
2023-04-15T05:58:00.447Z,10.04
2023-04-15T05:59:02.411Z,10.09
2023-04-15T06:00:06.497Z,10.12
2023-04-15T06:01:14.236Z,10.13
2023-04-15T06:02:17.578Z,10.16
2023-04-15T06:03:19.678Z,10.22
2023-04-15T06:04:22.870Z,10.29
2023-04-15T06:05:25.869Z,10.37
2023-04-15T06:06:27.821Z,10.45
2023-04-15T06:07:30.609Z,10.47
2023-04-15T06:08:33.755Z,10.51
2023-04-15T06:09:36.549Z,10.54
2023-04-15T06:10:38.408Z,10.56
2023-04-15T06:11:42.046Z,10.56
2023-04-15T06:12:43.840Z,10.56
2023-04-15T06:13:46.574Z,10.57
2023-04-15T06:14:48.505Z,10.61
2023-04-15T06:15:51.284Z,10.67
2023-04-15T06:16:53.135Z,10.82
2023-04-15T06:17:56.710Z,11.02
2023-04-15T06:18:58.495Z,11.17
2023-04-15T06:20:01.389Z,11.29
2023-04-15T06:21:03.716Z,11.37
2023-04-15T06:22:07.268Z,11.44
2023-04-15T06:23:09.088Z,11.54
2023-04-15T06:24:13.335Z,11.64
2023-04-15T06:25:15.574Z,11.71
2023-04-15T06:26:18.320Z,11.79
2023-04-15T06:27:20.806Z,11.88
2023-04-15T06:28:23.607Z,11.91
2023-04-15T06:29:25.407Z,11.95
2023-04-15T06:30:28.583Z,11.99
2023-04-15T06:31:31.584Z,12.02
2023-04-15T06:32:34.693Z,12.07
2023-04-15T06:33:36.949Z,12.12
2023-04-15T06:34:39.711Z,12.16
2023-04-15T06:35:41.506Z,12.19
2023-04-15T06:36:44.351Z,12.21
2023-04-15T06:37:47.340Z,12.21
2023-04-15T06:38:49.133Z,12.25
2023-04-15T06:39:53.285Z,12.32
2023-04-15T06:40:55.092Z,12.31
2023-04-15T06:41:58.159Z,12.28
2023-04-15T06:43:01.044Z,12.28
2023-04-15T06:44:03.078Z,12.24
2023-04-15T06:45:06.912Z,12.22
2023-04-15T06:46:08.835Z,12.23
2023-04-15T06:47:13.047Z,12.24
2023-04-15T06:48:15.866Z,12.24
2023-04-15T06:49:17.843Z,12.27
2023-04-15T06:50:20.625Z,12.42
2023-04-15T06:51:25.591Z,12.69
2023-04-15T06:52:29.522Z,12.90
2023-04-15T06:53:31.681Z,13.02
2023-04-15T06:54:34.438Z,13.13
2023-04-15T06:55:37.625Z,13.25
2023-04-15T06:56:40.444Z,13.30
2023-04-15T06:57:42.259Z,13.33
2023-04-15T06:58:46.178Z,13.36
2023-04-15T06:59:47.994Z,13.40
2023-04-15T07:00:51.124Z,13.40
2023-04-15T07:01:53.120Z,13.42
2023-04-15T07:02:56.515Z,13.41
2023-04-15T07:03:58.405Z,13.42
2023-04-15T07:05:01.670Z,13.40
2023-04-15T07:06:06.444Z,13.28
2023-04-15T07:07:09.432Z,13.19
2023-04-15T07:08:12.223Z,13.16
2023-04-15T07:09:15.348Z,13.16
2023-04-15T07:10:17.279Z,13.21
2023-04-15T07:11:22.132Z,13.32
2023-04-15T07:12:24.229Z,13.48
2023-04-15T07:13:27.040Z,13.59
2023-04-15T07:14:29.539Z,13.66
2023-04-15T07:15:32.354Z,13.74
2023-04-15T07:16:34.198Z,13.79
2023-04-15T07:17:37.334Z,13.85
2023-04-15T07:18:39.287Z,13.94
2023-04-15T07:19:42.130Z,14.05
2023-04-15T07:20:44.914Z,14.18
2023-04-15T07:21:47.161Z,14.23
2023-04-15T07:22:49.922Z,14.31
2023-04-15T07:23:52.946Z,14.34
2023-04-15T07:24:55.773Z,14.32
2023-04-15T07:25:57.611Z,14.30
2023-04-15T07:27:02.145Z,14.30
2023-04-15T07:28:04.236Z,14.35
2023-04-15T07:29:07.166Z,14.40
2023-04-15T07:30:10.653Z,14.43
2023-04-15T07:31:13.706Z,14.38
2023-04-15T07:32:15.600Z,14.34
2023-04-15T07:33:18.608Z,14.29
2023-04-15T07:34:20.812Z,14.20
2023-04-15T07:35:23.643Z,14.18
2023-04-15T07:36:25.501Z,14.23
2023-04-15T07:37:28.366Z,14.31
2023-04-15T07:38:30.169Z,14.43
2023-04-15T07:39:32.991Z,14.57
2023-04-15T07:40:34.875Z,14.68
2023-04-15T07:41:38.098Z,14.75
2023-04-15T07:42:42.297Z,14.81
2023-04-15T07:43:44.800Z,14.79
2023-04-15T07:44:47.552Z,14.74
2023-04-15T07:45:49.513Z,14.70
2023-04-15T07:46:52.467Z,14.64
2023-04-15T07:47:56.084Z,14.65
2023-04-15T07:48:57.986Z,14.69
2023-04-15T07:50:00.803Z,14.75
2023-04-15T07:51:03.534Z,14.71
2023-04-15T07:52:06.593Z,14.69
2023-04-15T07:53:09.447Z,14.68
2023-04-15T07:54:11.227Z,14.67
2023-04-15T07:55:14.029Z,14.72
2023-04-15T07:56:16.252Z,14.82
2023-04-15T07:57:19.132Z,14.92
2023-04-15T07:58:23.009Z,15.05
2023-04-15T07:59:27.599Z,15.14
2023-04-15T08:00:29.431Z,15.19
2023-04-15T08:01:33.236Z,15.26
2023-04-15T08:02:36.408Z,15.46
2023-04-15T08:03:41.253Z,15.71
2023-04-15T08:04:43.393Z,15.88
2023-04-15T08:05:47.326Z,16.08
2023-04-15T08:06:50.519Z,16.29
2023-04-15T08:07:53.317Z,16.39
2023-04-15T08:08:55.520Z,16.39
2023-04-15T08:09:58.285Z,16.38
2023-04-15T08:11:00.180Z,16.35
2023-04-15T08:12:03.364Z,16.29
2023-04-15T08:13:06.655Z,16.26
2023-04-15T08:14:09.844Z,16.19
2023-04-15T08:15:13.105Z,16.18
2023-04-15T08:16:18.947Z,16.19
2023-04-15T08:17:22.062Z,16.24
2023-04-15T08:18:23.952Z,16.34
2023-04-15T08:19:26.699Z,16.47
2023-04-15T08:20:28.642Z,16.50
2023-04-15T08:21:31.766Z,16.54
2023-04-15T08:22:33.648Z,16.61
2023-04-15T08:23:36.513Z,16.69
2023-04-15T08:24:39.160Z,16.67
2023-04-15T08:25:42.113Z,16.65
2023-04-15T08:26:44.365Z,16.66
2023-04-15T08:27:47.239Z,16.66
2023-04-15T08:28:49.543Z,16.64
2023-04-15T08:29:53.897Z,16.61
2023-04-15T08:30:56.030Z,16.61
2023-04-15T08:31:58.844Z,16.57
2023-04-15T08:33:01.172Z,16.55
2023-04-15T08:34:03.980Z,16.51
2023-04-15T08:35:06.367Z,16.48
2023-04-15T08:36:09.620Z,16.43
2023-04-15T08:37:12.687Z,16.38
2023-04-15T08:38:15.677Z,16.32
2023-04-15T08:39:17.928Z,16.25
2023-04-15T08:40:21.060Z,16.21
2023-04-15T08:41:23.784Z,16.17
2023-04-15T08:42:32.401Z,16.18
2023-04-15T08:43:35.544Z,16.17
2023-04-15T08:44:38.369Z,16.17
2023-04-15T08:45:42.614Z,16.14
2023-04-15T08:46:45.479Z,16.14
2023-04-15T08:47:48.938Z,16.22
2023-04-15T08:48:52.519Z,16.26
2023-04-15T08:49:55.594Z,16.32
2023-04-15T08:50:59.047Z,16.28
2023-04-15T08:52:01.480Z,16.23
2023-04-15T08:53:04.721Z,16.20
2023-04-15T08:54:08.778Z,16.21
2023-04-15T08:55:12.340Z,16.18
2023-04-15T08:56:16.464Z,16.13
2023-04-15T08:57:18.713Z,16.05
2023-04-15T08:58:21.816Z,15.96
2023-04-15T08:59:24.158Z,15.91
2023-04-15T09:00:27.599Z,15.89
2023-04-15T09:01:32.198Z,15.85
2023-04-15T09:02:35.088Z,15.76
2023-04-15T09:03:37.162Z,15.75
2023-04-15T09:04:40.603Z,15.73
2023-04-15T09:05:42.475Z,15.68
2023-04-15T09:06:45.341Z,15.62
2023-04-15T09:07:47.412Z,15.59
2023-04-15T09:08:50.388Z,15.54
2023-04-15T09:09:52.364Z,15.45
2023-04-15T09:10:55.319Z,15.42
2023-04-15T09:11:57.118Z,15.38
2023-04-15T09:12:59.927Z,15.33
2023-04-15T09:14:01.833Z,15.31
2023-04-15T09:15:05.213Z,15.30
2023-04-15T09:16:08.450Z,15.25
2023-04-15T09:17:11.809Z,15.21
2023-04-15T09:18:14.649Z,15.14
2023-04-15T09:19:22.034Z,15.07
2023-04-15T09:20:24.964Z,14.97
2023-04-15T09:21:27.698Z,14.87
2023-04-15T09:22:33.490Z,14.81
2023-04-15T09:23:35.693Z,14.77
2023-04-15T09:24:39.717Z,14.78
2023-04-15T09:25:42.548Z,14.82
2023-04-15T09:26:45.649Z,14.83
2023-04-15T09:27:48.579Z,14.87
2023-04-15T09:28:51.319Z,14.88
2023-04-15T09:29:54.124Z,14.95
2023-04-15T09:30:57.888Z,15.03
2023-04-15T09:32:11.678Z,15.09
2023-04-15T09:33:15.867Z,15.19
2023-04-15T09:34:18.779Z,15.26
2023-04-15T09:35:21.506Z,15.36
2023-04-15T09:36:25.150Z,15.50
2023-04-15T09:37:35.631Z,15.66
2023-04-15T09:38:56.024Z,15.88
2023-04-15T09:39:57.839Z,15.96
2023-04-15T09:41:00.989Z,16.03
2023-04-15T09:42:07.198Z,16.12
2023-04-15T09:43:12.837Z,16.27
2023-04-15T09:44:24.282Z,16.41
2023-04-15T09:45:29.572Z,16.50
2023-04-15T09:46:50.700Z,16.70
2023-04-15T09:47:54.114Z,16.85
2023-04-15T09:49:08.762Z,17.15
2023-04-15T09:50:11.580Z,17.39
2023-04-15T09:51:13.365Z,17.61
2023-04-15T09:52:16.125Z,17.76
2023-04-15T09:53:19.544Z,17.94
2023-04-15T09:54:22.952Z,18.05
2023-04-15T09:55:24.933Z,18.16
2023-04-15T09:56:33.606Z,18.34
2023-04-15T09:57:36.338Z,18.63
2023-04-15T09:58:39.365Z,18.96
2023-04-15T09:59:41.385Z,19.21
2023-04-15T10:00:44.629Z,19.44
2023-04-15T10:01:47.082Z,19.74
2023-04-15T10:02:50.481Z,20.09
2023-04-15T10:03:55.909Z,20.27
2023-04-15T10:04:59.042Z,20.25
2023-04-15T10:06:02.088Z,20.18
2023-04-15T10:07:05.524Z,20.27
2023-04-15T10:08:08.758Z,20.29
2023-04-15T10:09:10.843Z,20.23
2023-04-15T10:10:14.059Z,20.18
2023-04-15T10:11:17.516Z,20.08
2023-04-15T10:12:20.765Z,19.99
2023-04-15T10:13:26.098Z,19.86
2023-04-15T10:14:31.569Z,19.95
2023-04-15T10:15:35.298Z,20.13
2023-04-15T10:16:39.644Z,20.05
2023-04-15T10:17:44.879Z,19.92
2023-04-15T10:18:49.261Z,19.99
2023-04-15T10:19:55.061Z,19.90
2023-04-15T10:20:58.233Z,19.79
2023-04-15T10:22:00.481Z,19.72
2023-04-15T10:23:03.503Z,19.64
2023-04-15T10:24:06.214Z,19.58
2023-04-15T10:25:10.503Z,19.62
2023-04-15T10:26:14.727Z,19.75
2023-04-15T10:27:18.828Z,19.84
2023-04-15T10:28:22.725Z,19.84
2023-04-15T10:29:25.918Z,19.74
2023-04-15T10:30:29.058Z,19.60
2023-04-15T10:31:31.245Z,19.48
2023-04-15T10:32:34.242Z,19.39
2023-04-15T10:33:36.625Z,19.30
2023-04-15T10:34:39.658Z,19.19
2023-04-15T10:35:44.005Z,19.15
2023-04-15T10:36:47.058Z,19.11
2023-04-15T10:37:49.891Z,19.10
2023-04-15T10:38:51.672Z,19.06
2023-04-15T10:39:54.514Z,18.96
2023-04-15T10:41:13.161Z,18.77
2023-04-15T10:42:17.376Z,18.62
2023-04-15T10:43:26.380Z,18.48
2023-04-15T10:44:29.175Z,18.38
2023-04-15T10:45:33.443Z,18.30
2023-04-15T10:46:38.211Z,18.18
2023-04-15T10:47:40.124Z,17.97
2023-04-15T10:48:48.809Z,17.77
2023-04-15T10:49:53.594Z,17.64
2023-04-15T10:51:00.961Z,17.55
2023-04-15T10:52:04.243Z,17.48
2023-04-15T10:53:07.044Z,17.47
2023-04-15T10:54:10.464Z,17.48
2023-04-15T10:55:15.679Z,17.48
2023-04-15T10:56:17.494Z,17.45
2023-04-15T10:57:24.207Z,17.47
2023-04-15T10:58:27.313Z,17.35
2023-04-15T10:59:29.448Z,17.24
2023-04-15T11:00:35.225Z,17.16
2023-04-15T11:01:53.132Z,17.12
2023-04-15T11:02:57.869Z,17.08
2023-04-15T11:04:00.175Z,17.07
2023-04-15T11:05:03.816Z,17.07
2023-04-15T11:06:08.469Z,17.05
2023-04-15T11:07:10.970Z,17.07
2023-04-15T11:08:15.199Z,17.09
2023-04-15T11:09:32.969Z,17.14
2023-04-15T11:10:54.826Z,17.15
2023-04-15T11:12:08.392Z,17.20
2023-04-15T11:13:16.732Z,17.23
2023-04-15T11:14:19.521Z,17.25
2023-04-15T11:15:29.751Z,17.27
2023-04-15T11:16:32.669Z,17.34
2023-04-15T11:17:34.516Z,17.39
2023-04-15T11:18:38.003Z,17.44
2023-04-15T11:19:40.869Z,17.53
2023-04-15T11:20:45.732Z,17.58
2023-04-15T11:21:49.913Z,17.55
2023-04-15T11:23:08.030Z,17.55
2023-04-15T11:24:27.089Z,17.48
2023-04-15T11:25:31.051Z,17.45
2023-04-15T11:26:34.025Z,17.38
2023-04-15T11:27:35.801Z,17.35
2023-04-15T11:28:40.074Z,17.31
2023-04-15T11:29:41.974Z,17.26
2023-04-15T11:30:45.203Z,17.22
2023-04-15T11:31:49.582Z,17.19
2023-04-15T11:32:55.490Z,17.17
2023-04-15T11:34:00.343Z,17.10
2023-04-15T11:35:02.548Z,17.09
2023-04-15T11:36:05.712Z,17.19
2023-04-15T11:37:09.116Z,17.36
2023-04-15T11:38:13.631Z,17.64
2023-04-15T11:39:16.726Z,17.72
2023-04-15T11:40:23.853Z,17.70
2023-04-15T11:41:27.307Z,17.71
2023-04-15T11:42:39.341Z,17.64
2023-04-15T11:43:49.470Z,17.57
2023-04-15T11:45:07.416Z,17.57
2023-04-15T11:46:10.291Z,17.59
2023-04-15T11:47:23.098Z,17.65
2023-04-15T11:48:27.359Z,17.67
2023-04-15T11:49:30.652Z,17.67
2023-04-15T11:50:33.517Z,17.67
2023-04-15T11:51:37.180Z,17.70
2023-04-15T11:52:40.788Z,17.74
2023-04-15T11:53:45.850Z,17.83
2023-04-15T11:54:47.980Z,17.95
2023-04-15T11:55:53.152Z,18.12
2023-04-15T11:56:56.622Z,18.34
2023-04-15T11:58:14.477Z,18.64
2023-04-15T11:59:18.403Z,18.78
2023-04-15T12:00:20.416Z,18.81
2023-04-15T12:01:32.261Z,18.79
2023-04-15T12:02:37.136Z,18.75
2023-04-15T12:03:41.243Z,18.67
2023-04-15T12:04:43.641Z,18.64
2023-04-15T12:06:20.046Z,18.66
2023-04-15T12:07:21.870Z,18.70
2023-04-15T12:08:26.202Z,18.72
2023-04-15T12:09:29.939Z,18.69
2023-04-15T12:10:32.724Z,18.70
2023-04-15T12:11:40.917Z,18.70
2023-04-15T12:12:42.764Z,18.78
2023-04-15T12:13:46.080Z,19.02
2023-04-15T12:14:48.868Z,19.25
2023-04-15T12:15:50.744Z,19.32
2023-04-15T12:16:54.949Z,19.32
2023-04-15T12:17:59.899Z,19.29
2023-04-15T12:19:08.468Z,19.34
2023-04-15T12:20:11.970Z,19.43
2023-04-15T12:21:14.088Z,19.38
2023-04-15T12:22:17.934Z,19.29
2023-04-15T12:23:20.220Z,19.15
2023-04-15T12:24:24.378Z,18.94
2023-04-15T12:25:35.615Z,18.69
2023-04-15T12:26:38.991Z,18.50
2023-04-15T12:27:42.464Z,18.34
2023-04-15T12:28:44.276Z,18.20
2023-04-15T12:29:47.214Z,18.03
2023-04-15T12:30:50.017Z,17.87
2023-04-15T12:31:55.204Z,17.70
2023-04-15T12:32:57.871Z,17.59
2023-04-15T12:34:01.722Z,17.50
2023-04-15T12:35:05.308Z,17.43
2023-04-15T12:36:08.270Z,17.33
2023-04-15T12:37:13.729Z,17.21
2023-04-15T12:38:15.753Z,17.10
2023-04-15T12:39:18.571Z,17.05
2023-04-15T12:40:22.044Z,16.99
2023-04-15T12:41:25.397Z,16.91
2023-04-15T12:42:28.369Z,16.79
2023-04-15T12:43:30.204Z,16.68
2023-04-15T12:44:33.800Z,16.56
2023-04-15T12:45:35.852Z,16.45
2023-04-15T12:46:38.948Z,16.38
2023-04-15T12:47:41.772Z,16.33
2023-04-15T12:48:43.691Z,16.31
2023-04-15T12:49:46.922Z,16.31
2023-04-15T12:50:48.752Z,16.34
2023-04-15T12:51:53.022Z,16.41
2023-04-15T12:52:54.903Z,16.57
2023-04-15T12:53:57.977Z,16.76
2023-04-15T12:55:01.764Z,16.95
2023-04-15T12:56:05.421Z,17.14
2023-04-15T12:57:08.207Z,17.29
2023-04-15T12:58:11.763Z,17.48
2023-04-15T12:59:14.559Z,17.65
2023-04-15T13:00:16.793Z,17.78
2023-04-15T13:01:20.069Z,17.86
2023-04-15T13:02:25.552Z,17.92
2023-04-15T13:03:28.662Z,18.07
2023-04-15T13:04:31.321Z,18.27
2023-04-15T13:05:34.333Z,18.45
2023-04-15T13:06:36.340Z,18.60
2023-04-15T13:07:39.439Z,18.83
2023-04-15T13:08:47.997Z,19.14
2023-04-15T13:09:57.102Z,19.50
2023-04-15T13:11:00.138Z,19.88
2023-04-15T13:12:05.664Z,20.07
2023-04-15T13:13:07.935Z,20.25
2023-04-15T13:14:12.993Z,20.51
2023-04-15T13:15:15.031Z,20.58
2023-04-15T13:16:17.962Z,20.48
2023-04-15T13:17:22.240Z,20.49
2023-04-15T13:18:25.337Z,20.58
2023-04-15T13:19:27.168Z,20.65
2023-04-15T13:20:30.013Z,20.85
2023-04-15T13:21:35.053Z,21.19
2023-04-15T13:22:38.231Z,21.58
2023-04-15T13:23:41.674Z,21.88
2023-04-15T13:24:44.455Z,21.94
2023-04-15T13:25:46.437Z,21.86
2023-04-15T13:26:50.520Z,21.85
2023-04-15T13:27:53.771Z,21.77
2023-04-15T13:28:56.689Z,21.70
2023-04-15T13:29:58.570Z,21.59
2023-04-15T13:31:01.499Z,21.41
2023-04-15T13:32:03.389Z,21.15
2023-04-15T13:33:06.730Z,20.95
2023-04-15T13:34:08.539Z,20.84
2023-04-15T13:35:11.326Z,20.92
2023-04-15T13:36:14.210Z,20.95
2023-04-15T13:37:16.289Z,20.99
2023-04-15T13:38:19.247Z,21.07
2023-04-15T13:39:21.170Z,21.23
2023-04-15T13:40:24.115Z,21.48
2023-04-15T13:41:26.214Z,21.69
2023-04-15T13:42:29.058Z,21.79
2023-04-15T13:43:34.274Z,21.83
2023-04-15T13:44:37.068Z,21.94
2023-04-15T13:45:40.185Z,22.09
2023-04-15T13:46:42.603Z,22.16
2023-04-15T13:47:45.470Z,22.20
2023-04-15T13:48:47.755Z,22.20
2023-04-15T13:49:50.624Z,22.20